sensor_id;sensor_type;location;lat;lon;timestamp;P1;durP1;ratioP1;P2;durP2;ratioP2
66669;SDS011;53568;52.164;4.472;2022-11-03T00:06:22;6.29;;;4.55;;
66669;SDS011;53568;52.164;4.472;2022-11-03T00:08:50;6.30;;;4.61;;
66669;SDS011;53568;52.164;4.472;2022-11-03T00:11:16;6.26;;;4.56;;
66669;SDS011;53568;52.164;4.472;2022-11-03T00:13:45;6.42;;;4.60;;
66669;SDS011;53568;52.164;4.472;2022-11-03T00:16:14;8.12;;;5.46;;
66669;SDS011;53568;52.164;4.472;2022-11-03T00:18:39;7.17;;;4.98;;
66669;SDS011;53568;52.164;4.472;2022-11-03T00:21:06;6.58;;;4.67;;
66669;SDS011;53568;52.164;4.472;2022-11-03T00:23:35;6.39;;;4.61;;
66669;SDS011;53568;52.164;4.472;2022-11-03T00:26:24;6.06;;;4.37;;
66669;SDS011;53568;52.164;4.472;2022-11-03T00:28:49;6.93;;;4.93;;
66669;SDS011;53568;52.164;4.472;2022-11-03T00:31:21;7.34;;;5.11;;
66669;SDS011;53568;52.164;4.472;2022-11-03T00:33:48;6.66;;;4.67;;
66669;SDS011;53568;52.164;4.472;2022-11-03T00:36:16;6.38;;;4.55;;
66669;SDS011;53568;52.164;4.472;2022-11-03T00:38:44;6.06;;;4.27;;
66669;SDS011;53568;52.164;4.472;2022-11-03T00:41:13;6.35;;;4.50;;
66669;SDS011;53568;52.164;4.472;2022-11-03T00:43:40;6.60;;;4.64;;
66669;SDS011;53568;52.164;4.472;2022-11-03T00:46:06;6.19;;;4.37;;
66669;SDS011;53568;52.164;4.472;2022-11-03T00:48:33;6.95;;;4.88;;
66669;SDS011;53568;52.164;4.472;2022-11-03T00:51:06;6.54;;;4.58;;
66669;SDS011;53568;52.164;4.472;2022-11-03T00:53:50;7.05;;;4.97;;
66669;SDS011;53568;52.164;4.472;2022-11-03T00:56:24;7.29;;;5.14;;
66669;SDS011;53568;52.164;4.472;2022-11-03T00:58:53;6.58;;;4.59;;
66669;SDS011;53568;52.164;4.472;2022-11-03T01:01:23;6.35;;;4.51;;
66669;SDS011;53568;52.164;4.472;2022-11-03T01:03:52;6.62;;;4.66;;
66669;SDS011;53568;52.164;4.472;2022-11-03T01:06:39;6.97;;;4.87;;
66669;SDS011;53568;52.164;4.472;2022-11-03T01:12:11;6.26;;;4.56;;
66669;SDS011;53568;52.164;4.472;2022-11-03T01:14:46;6.17;;;4.37;;
66669;SDS011;53568;52.164;4.472;2022-11-03T01:17:17;6.00;;;4.36;;
66669;SDS011;53568;52.164;4.472;2022-11-03T01:19:45;6.83;;;4.92;;
66669;SDS011;53568;52.164;4.472;2022-11-03T01:22:11;6.29;;;4.54;;
66669;SDS011;53568;52.164;4.472;2022-11-03T01:24:41;6.31;;;4.61;;
66669;SDS011;53568;52.164;4.472;2022-11-03T01:27:08;6.53;;;4.70;;
66669;SDS011;53568;52.164;4.472;2022-11-03T01:29:37;6.67;;;4.72;;
66669;SDS011;53568;52.164;4.472;2022-11-03T01:32:03;6.76;;;4.79;;
66669;SDS011;53568;52.164;4.472;2022-11-03T01:34:29;6.55;;;4.70;;
66669;SDS011;53568;52.164;4.472;2022-11-03T01:36:55;5.89;;;4.27;;
66669;SDS011;53568;52.164;4.472;2022-11-03T01:39:20;6.35;;;4.60;;
66669;SDS011;53568;52.164;4.472;2022-11-03T01:41:47;5.98;;;4.34;;
66669;SDS011;53568;52.164;4.472;2022-11-03T01:46:47;6.67;;;4.78;;
66669;SDS011;53568;52.164;4.472;2022-11-03T01:54:34;6.11;;;4.52;;
66669;SDS011;53568;52.164;4.472;2022-11-03T01:57:03;6.56;;;4.79;;
66669;SDS011;53568;52.164;4.472;2022-11-03T01:59:33;6.08;;;4.45;;
66669;SDS011;53568;52.164;4.472;2022-11-03T02:02:03;6.37;;;4.60;;
66669;SDS011;53568;52.164;4.472;2022-11-03T02:04:29;6.40;;;4.61;;
66669;SDS011;53568;52.164;4.472;2022-11-03T02:07:13;6.18;;;4.53;;
66669;SDS011;53568;52.164;4.472;2022-11-03T02:09:47;5.79;;;4.29;;
66669;SDS011;53568;52.164;4.472;2022-11-03T02:12:12;5.92;;;4.34;;
66669;SDS011;53568;52.164;4.472;2022-11-03T02:14:53;6.25;;;4.54;;
66669;SDS011;53568;52.164;4.472;2022-11-03T02:17:29;6.05;;;4.36;;
66669;SDS011;53568;52.164;4.472;2022-11-03T02:20:02;5.84;;;4.25;;
66669;SDS011;53568;52.164;4.472;2022-11-03T02:25:39;6.03;;;4.42;;
66669;SDS011;53568;52.164;4.472;2022-11-03T02:28:26;5.43;;;4.01;;
66669;SDS011;53568;52.164;4.472;2022-11-03T02:31:11;6.11;;;4.47;;
66669;SDS011;53568;52.164;4.472;2022-11-03T02:34:03;5.97;;;4.34;;
66669;SDS011;53568;52.164;4.472;2022-11-03T02:36:58;6.35;;;4.67;;
66669;SDS011;53568;52.164;4.472;2022-11-03T02:39:40;5.28;;;3.97;;
66669;SDS011;53568;52.164;4.472;2022-11-03T02:42:11;5.69;;;4.26;;
66669;SDS011;53568;52.164;4.472;2022-11-03T02:44:40;5.67;;;4.22;;
66669;SDS011;53568;52.164;4.472;2022-11-03T02:47:09;5.66;;;4.23;;
66669;SDS011;53568;52.164;4.472;2022-11-03T02:49:38;5.93;;;4.40;;
66669;SDS011;53568;52.164;4.472;2022-11-03T02:52:29;6.01;;;4.41;;
66669;SDS011;53568;52.164;4.472;2022-11-03T02:55:01;6.11;;;4.45;;
66669;SDS011;53568;52.164;4.472;2022-11-03T02:57:36;6.01;;;4.43;;
66669;SDS011;53568;52.164;4.472;2022-11-03T03:00:12;5.87;;;4.36;;
66669;SDS011;53568;52.164;4.472;2022-11-03T03:05:09;5.43;;;4.09;;
66669;SDS011;53568;52.164;4.472;2022-11-03T03:07:37;5.44;;;4.13;;
66669;SDS011;53568;52.164;4.472;2022-11-03T03:12:52;5.88;;;4.41;;
66669;SDS011;53568;52.164;4.472;2022-11-03T03:20:44;5.55;;;4.30;;
66669;SDS011;53568;52.164;4.472;2022-11-03T03:23:24;5.41;;;4.22;;
66669;SDS011;53568;52.164;4.472;2022-11-03T03:26:11;5.94;;;4.52;;
66669;SDS011;53568;52.164;4.472;2022-11-03T03:29:05;5.53;;;4.23;;
66669;SDS011;53568;52.164;4.472;2022-11-03T03:31:39;5.63;;;4.18;;
66669;SDS011;53568;52.164;4.472;2022-11-03T03:34:11;6.61;;;4.91;;
66669;SDS011;53568;52.164;4.472;2022-11-03T03:36:41;5.76;;;4.27;;
66669;SDS011;53568;52.164;4.472;2022-11-03T03:39:10;5.54;;;4.26;;
66669;SDS011;53568;52.164;4.472;2022-11-03T03:41:39;5.94;;;4.53;;
66669;SDS011;53568;52.164;4.472;2022-11-03T03:44:07;5.90;;;4.46;;
66669;SDS011;53568;52.164;4.472;2022-11-03T03:46:37;5.33;;;4.03;;
66669;SDS011;53568;52.164;4.472;2022-11-03T03:49:08;5.60;;;4.31;;
66669;SDS011;53568;52.164;4.472;2022-11-03T03:51:34;4.99;;;4.01;;
66669;SDS011;53568;52.164;4.472;2022-11-03T03:54:00;5.27;;;4.21;;
66669;SDS011;53568;52.164;4.472;2022-11-03T03:56:28;5.66;;;4.39;;
66669;SDS011;53568;52.164;4.472;2022-11-03T03:59:00;5.15;;;4.00;;
66669;SDS011;53568;52.164;4.472;2022-11-03T04:01:25;5.63;;;4.42;;
66669;SDS011;53568;52.164;4.472;2022-11-03T04:03:51;6.19;;;4.92;;
66669;SDS011;53568;52.164;4.472;2022-11-03T04:06:16;5.65;;;4.47;;
66669;SDS011;53568;52.164;4.472;2022-11-03T04:08:42;6.13;;;4.74;;
66669;SDS011;53568;52.164;4.472;2022-11-03T04:11:07;5.05;;;3.93;;
66669;SDS011;53568;52.164;4.472;2022-11-03T04:13:51;4.97;;;3.91;;
66669;SDS011;53568;52.164;4.472;2022-11-03T04:16:35;5.48;;;4.17;;
66669;SDS011;53568;52.164;4.472;2022-11-03T04:19:19;5.23;;;4.10;;
66669;SDS011;53568;52.164;4.472;2022-11-03T04:22:03;4.26;;;3.43;;
66669;SDS011;53568;52.164;4.472;2022-11-03T04:24:41;4.87;;;3.92;;
66669;SDS011;53568;52.164;4.472;2022-11-03T04:32:33;4.45;;;3.61;;
66669;SDS011;53568;52.164;4.472;2022-11-03T04:34:58;5.18;;;4.17;;
66669;SDS011;53568;52.164;4.472;2022-11-03T04:37:27;4.92;;;4.07;;
66669;SDS011;53568;52.164;4.472;2022-11-03T04:39:54;4.86;;;4.04;;
66669;SDS011;53568;52.164;4.472;2022-11-03T04:42:24;4.68;;;3.79;;
66669;SDS011;53568;52.164;4.472;2022-11-03T04:44:50;4.75;;;3.80;;
66669;SDS011;53568;52.164;4.472;2022-11-03T04:47:16;4.94;;;3.86;;
66669;SDS011;53568;52.164;4.472;2022-11-03T04:49:43;4.92;;;3.88;;
66669;SDS011;53568;52.164;4.472;2022-11-03T04:52:16;5.56;;;4.32;;
66669;SDS011;53568;52.164;4.472;2022-11-03T04:54:46;5.15;;;4.14;;
66669;SDS011;53568;52.164;4.472;2022-11-03T04:57:15;5.35;;;4.29;;
66669;SDS011;53568;52.164;4.472;2022-11-03T04:59:42;4.60;;;3.68;;
66669;SDS011;53568;52.164;4.472;2022-11-03T05:02:12;4.74;;;3.84;;
66669;SDS011;53568;52.164;4.472;2022-11-03T05:04:43;5.13;;;4.10;;
66669;SDS011;53568;52.164;4.472;2022-11-03T05:07:28;5.18;;;4.00;;
66669;SDS011;53568;52.164;4.472;2022-11-03T05:09:57;5.03;;;4.02;;
66669;SDS011;53568;52.164;4.472;2022-11-03T05:12:24;5.17;;;4.22;;
66669;SDS011;53568;52.164;4.472;2022-11-03T05:14:50;4.85;;;3.95;;
66669;SDS011;53568;52.164;4.472;2022-11-03T05:17:24;4.99;;;4.02;;
66669;SDS011;53568;52.164;4.472;2022-11-03T05:19:53;4.61;;;3.77;;
66669;SDS011;53568;52.164;4.472;2022-11-03T05:22:24;4.81;;;3.97;;
66669;SDS011;53568;52.164;4.472;2022-11-03T05:24:59;4.52;;;3.77;;
66669;SDS011;53568;52.164;4.472;2022-11-03T05:27:43;4.22;;;3.59;;
66669;SDS011;53568;52.164;4.472;2022-11-03T05:30:11;4.46;;;3.71;;
66669;SDS011;53568;52.164;4.472;2022-11-03T05:32:39;4.50;;;3.74;;
66669;SDS011;53568;52.164;4.472;2022-11-03T05:35:07;4.64;;;3.87;;
66669;SDS011;53568;52.164;4.472;2022-11-03T05:37:45;4.85;;;4.06;;
66669;SDS011;53568;52.164;4.472;2022-11-03T05:40:15;4.97;;;4.07;;
66669;SDS011;53568;52.164;4.472;2022-11-03T05:42:46;4.29;;;3.65;;
66669;SDS011;53568;52.164;4.472;2022-11-03T05:47:56;4.80;;;4.06;;
66669;SDS011;53568;52.164;4.472;2022-11-03T05:50:25;4.23;;;3.56;;
66669;SDS011;53568;52.164;4.472;2022-11-03T05:52:55;4.24;;;3.57;;
66669;SDS011;53568;52.164;4.472;2022-11-03T05:57:59;4.22;;;3.53;;
66669;SDS011;53568;52.164;4.472;2022-11-03T06:00:39;4.33;;;3.70;;
66669;SDS011;53568;52.164;4.472;2022-11-03T06:03:08;4.84;;;4.19;;
66669;SDS011;53568;52.164;4.472;2022-11-03T06:05:42;4.37;;;3.78;;
66669;SDS011;53568;52.164;4.472;2022-11-03T06:08:14;4.34;;;3.78;;
66669;SDS011;53568;52.164;4.472;2022-11-03T06:10:46;4.25;;;3.64;;
66669;SDS011;53568;52.164;4.472;2022-11-03T06:13:35;4.41;;;3.80;;
66669;SDS011;53568;52.164;4.472;2022-11-03T06:16:07;4.29;;;3.71;;
66669;SDS011;53568;52.164;4.472;2022-11-03T06:18:45;4.31;;;3.63;;
66669;SDS011;53568;52.164;4.472;2022-11-03T06:21:12;4.34;;;3.76;;
66669;SDS011;53568;52.164;4.472;2022-11-03T06:23:43;4.55;;;3.90;;
66669;SDS011;53568;52.164;4.472;2022-11-03T06:26:27;4.68;;;4.01;;
66669;SDS011;53568;52.164;4.472;2022-11-03T06:28:55;4.49;;;4.00;;
66669;SDS011;53568;52.164;4.472;2022-11-03T06:31:22;4.45;;;3.94;;
66669;SDS011;53568;52.164;4.472;2022-11-03T06:33:51;4.28;;;3.87;;
66669;SDS011;53568;52.164;4.472;2022-11-03T06:36:19;4.31;;;3.92;;
66669;SDS011;53568;52.164;4.472;2022-11-03T06:38:55;3.99;;;3.63;;
66669;SDS011;53568;52.164;4.472;2022-11-03T06:41:35;4.31;;;3.83;;
66669;SDS011;53568;52.164;4.472;2022-11-03T06:44:01;4.23;;;3.68;;
66669;SDS011;53568;52.164;4.472;2022-11-03T06:46:56;4.56;;;4.02;;
66669;SDS011;53568;52.164;4.472;2022-11-03T06:49:34;4.13;;;3.71;;
66669;SDS011;53568;52.164;4.472;2022-11-03T06:55:16;4.29;;;3.86;;
66669;SDS011;53568;52.164;4.472;2022-11-03T06:57:50;4.35;;;3.89;;
66669;SDS011;53568;52.164;4.472;2022-11-03T07:00:22;4.05;;;3.57;;
66669;SDS011;53568;52.164;4.472;2022-11-03T07:05:42;3.63;;;3.30;;
66669;SDS011;53568;52.164;4.472;2022-11-03T07:10:48;4.49;;;4.07;;
66669;SDS011;53568;52.164;4.472;2022-11-03T07:13:26;5.06;;;4.61;;
66669;SDS011;53568;52.164;4.472;2022-11-03T07:15:52;4.28;;;3.86;;
66669;SDS011;53568;52.164;4.472;2022-11-03T07:20:48;4.00;;;3.65;;
66669;SDS011;53568;52.164;4.472;2022-11-03T07:23:16;4.08;;;3.75;;
66669;SDS011;53568;52.164;4.472;2022-11-03T07:25:48;4.69;;;4.17;;
66669;SDS011;53568;52.164;4.472;2022-11-03T07:28:19;4.01;;;3.59;;
66669;SDS011;53568;52.164;4.472;2022-11-03T07:30:47;4.18;;;3.77;;
66669;SDS011;53568;52.164;4.472;2022-11-03T07:33:23;4.20;;;3.79;;
66669;SDS011;53568;52.164;4.472;2022-11-03T07:35:51;4.57;;;3.92;;
66669;SDS011;53568;52.164;4.472;2022-11-03T07:38:21;4.33;;;3.78;;
66669;SDS011;53568;52.164;4.472;2022-11-03T07:40:49;4.12;;;3.71;;
66669;SDS011;53568;52.164;4.472;2022-11-03T07:43:18;4.09;;;3.66;;
66669;SDS011;53568;52.164;4.472;2022-11-03T07:45:51;4.12;;;3.74;;
66669;SDS011;53568;52.164;4.472;2022-11-03T07:48:26;4.45;;;3.95;;
66669;SDS011;53568;52.164;4.472;2022-11-03T07:50:53;4.36;;;3.91;;
66669;SDS011;53568;52.164;4.472;2022-11-03T07:55:56;4.06;;;3.66;;
66669;SDS011;53568;52.164;4.472;2022-11-03T07:58:23;4.25;;;3.84;;
66669;SDS011;53568;52.164;4.472;2022-11-03T08:00:56;4.00;;;3.63;;
66669;SDS011;53568;52.164;4.472;2022-11-03T08:03:38;4.20;;;3.76;;
66669;SDS011;53568;52.164;4.472;2022-11-03T08:06:08;4.67;;;4.16;;
66669;SDS011;53568;52.164;4.472;2022-11-03T08:08:34;4.72;;;4.12;;
66669;SDS011;53568;52.164;4.472;2022-11-03T08:10:59;4.78;;;4.18;;
66669;SDS011;53568;52.164;4.472;2022-11-03T08:13:24;4.07;;;3.66;;
66669;SDS011;53568;52.164;4.472;2022-11-03T08:15:50;4.34;;;3.86;;
66669;SDS011;53568;52.164;4.472;2022-11-03T08:18:15;4.14;;;3.73;;
66669;SDS011;53568;52.164;4.472;2022-11-03T08:20:41;3.88;;;3.46;;
66669;SDS011;53568;52.164;4.472;2022-11-03T08:23:06;3.95;;;3.59;;
66669;SDS011;53568;52.164;4.472;2022-11-03T08:25:32;4.21;;;3.82;;
66669;SDS011;53568;52.164;4.472;2022-11-03T08:27:57;4.43;;;3.98;;
66669;SDS011;53568;52.164;4.472;2022-11-03T08:30:24;4.51;;;4.02;;
66669;SDS011;53568;52.164;4.472;2022-11-03T08:32:50;4.57;;;3.97;;
66669;SDS011;53568;52.164;4.472;2022-11-03T08:35:15;4.62;;;3.98;;
66669;SDS011;53568;52.164;4.472;2022-11-03T08:37:41;4.90;;;4.26;;
66669;SDS011;53568;52.164;4.472;2022-11-03T08:40:06;4.75;;;4.08;;
66669;SDS011;53568;52.164;4.472;2022-11-03T08:42:32;4.77;;;4.11;;
66669;SDS011;53568;52.164;4.472;2022-11-03T08:44:58;4.66;;;4.10;;
66669;SDS011;53568;52.164;4.472;2022-11-03T08:47:23;4.52;;;4.00;;
66669;SDS011;53568;52.164;4.472;2022-11-03T08:49:49;4.69;;;4.08;;
66669;SDS011;53568;52.164;4.472;2022-11-03T08:52:15;4.67;;;3.97;;
66669;SDS011;53568;52.164;4.472;2022-11-03T08:54:40;4.99;;;4.22;;
66669;SDS011;53568;52.164;4.472;2022-11-03T08:57:06;4.98;;;4.22;;
66669;SDS011;53568;52.164;4.472;2022-11-03T08:59:31;5.18;;;4.34;;
66669;SDS011;53568;52.164;4.472;2022-11-03T09:01:57;5.12;;;4.29;;
66669;SDS011;53568;52.164;4.472;2022-11-03T09:04:22;4.70;;;3.99;;
66669;SDS011;53568;52.164;4.472;2022-11-03T09:06:48;4.33;;;3.78;;
66669;SDS011;53568;52.164;4.472;2022-11-03T09:09:13;4.72;;;4.06;;
66669;SDS011;53568;52.164;4.472;2022-11-03T09:11:40;4.86;;;4.22;;
66669;SDS011;53568;52.164;4.472;2022-11-03T09:14:05;4.64;;;4.14;;
66669;SDS011;53568;52.164;4.472;2022-11-03T09:16:31;5.22;;;4.46;;
66669;SDS011;53568;52.164;4.472;2022-11-03T09:18:56;5.29;;;4.45;;
66669;SDS011;53568;52.164;4.472;2022-11-03T09:21:22;5.46;;;4.59;;
66669;SDS011;53568;52.164;4.472;2022-11-03T09:23:47;4.74;;;4.01;;
66669;SDS011;53568;52.164;4.472;2022-11-03T09:26:13;4.74;;;4.08;;
66669;SDS011;53568;52.164;4.472;2022-11-03T09:28:38;4.70;;;4.09;;
66669;SDS011;53568;52.164;4.472;2022-11-03T09:31:04;4.72;;;4.11;;
66669;SDS011;53568;52.164;4.472;2022-11-03T09:33:29;5.16;;;4.43;;
66669;SDS011;53568;52.164;4.472;2022-11-03T09:35:55;6.65;;;5.72;;
66669;SDS011;53568;52.164;4.472;2022-11-03T09:38:20;4.86;;;4.23;;
66669;SDS011;53568;52.164;4.472;2022-11-03T09:40:48;4.58;;;3.99;;
66669;SDS011;53568;52.164;4.472;2022-11-03T09:43:14;4.48;;;3.91;;
66669;SDS011;53568;52.164;4.472;2022-11-03T09:45:39;4.66;;;4.09;;
66669;SDS011;53568;52.164;4.472;2022-11-03T09:48:08;5.17;;;4.51;;
66669;SDS011;53568;52.164;4.472;2022-11-03T09:50:34;5.21;;;4.42;;
66669;SDS011;53568;52.164;4.472;2022-11-03T09:53:00;5.04;;;4.25;;
66669;SDS011;53568;52.164;4.472;2022-11-03T09:55:26;5.26;;;4.46;;
66669;SDS011;53568;52.164;4.472;2022-11-03T09:57:59;4.89;;;4.20;;
66669;SDS011;53568;52.164;4.472;2022-11-03T10:00:33;5.71;;;4.85;;
66669;SDS011;53568;52.164;4.472;2022-11-03T10:02:58;5.37;;;4.51;;
66669;SDS011;53568;52.164;4.472;2022-11-03T10:05:26;5.57;;;4.55;;
66669;SDS011;53568;52.164;4.472;2022-11-03T10:08:02;5.47;;;4.45;;
66669;SDS011;53568;52.164;4.472;2022-11-03T10:10:32;4.72;;;4.04;;
66669;SDS011;53568;52.164;4.472;2022-11-03T10:12:59;4.74;;;4.06;;
66669;SDS011;53568;52.164;4.472;2022-11-03T10:15:25;5.35;;;4.47;;
66669;SDS011;53568;52.164;4.472;2022-11-03T10:17:52;5.08;;;4.23;;
66669;SDS011;53568;52.164;4.472;2022-11-03T10:20:20;5.25;;;4.20;;
66669;SDS011;53568;52.164;4.472;2022-11-03T10:22:49;5.30;;;4.28;;
66669;SDS011;53568;52.164;4.472;2022-11-03T10:28:16;4.34;;;3.70;;
66669;SDS011;53568;52.164;4.472;2022-11-03T10:30:49;4.31;;;3.73;;
66669;SDS011;53568;52.164;4.472;2022-11-03T10:33:26;4.47;;;3.85;;
66669;SDS011;53568;52.164;4.472;2022-11-03T10:35:53;4.94;;;4.22;;
66669;SDS011;53568;52.164;4.472;2022-11-03T10:38:32;4.73;;;3.96;;
66669;SDS011;53568;52.164;4.472;2022-11-03T10:41:09;4.85;;;4.04;;
66669;SDS011;53568;52.164;4.472;2022-11-03T10:43:41;4.81;;;3.92;;
66669;SDS011;53568;52.164;4.472;2022-11-03T10:46:14;4.74;;;3.93;;
66669;SDS011;53568;52.164;4.472;2022-11-03T10:49:00;5.00;;;4.13;;
66669;SDS011;53568;52.164;4.472;2022-11-03T10:51:28;4.72;;;3.93;;
66669;SDS011;53568;52.164;4.472;2022-11-03T10:53:54;4.73;;;4.03;;
66669;SDS011;53568;52.164;4.472;2022-11-03T10:56:20;5.07;;;4.26;;
66669;SDS011;53568;52.164;4.472;2022-11-03T10:58:46;4.38;;;3.78;;
66669;SDS011;53568;52.164;4.472;2022-11-03T11:01:12;4.38;;;3.85;;
66669;SDS011;53568;52.164;4.472;2022-11-03T11:03:39;4.44;;;3.84;;
66669;SDS011;53568;52.164;4.472;2022-11-03T11:08:53;4.26;;;3.71;;
66669;SDS011;53568;52.164;4.472;2022-11-03T11:11:24;3.89;;;3.42;;
66669;SDS011;53568;52.164;4.472;2022-11-03T11:16:55;4.41;;;3.79;;
66669;SDS011;53568;52.164;4.472;2022-11-03T11:19:23;4.11;;;3.59;;
66669;SDS011;53568;52.164;4.472;2022-11-03T11:28:10;4.14;;;3.57;;
66669;SDS011;53568;52.164;4.472;2022-11-03T11:37:55;3.94;;;3.43;;
66669;SDS011;53568;52.164;4.472;2022-11-03T11:40:50;3.89;;;3.36;;
66669;SDS011;53568;52.164;4.472;2022-11-03T11:49:31;3.70;;;3.24;;
66669;SDS011;53568;52.164;4.472;2022-11-03T11:51:33;3.69;;;3.25;;
66669;SDS011;53568;52.164;4.472;2022-11-03T11:54:03;3.49;;;3.17;;
66669;SDS011;53568;52.164;4.472;2022-11-03T11:56:32;3.55;;;3.19;;
66669;SDS011;53568;52.164;4.472;2022-11-03T11:58:58;3.84;;;3.44;;
66669;SDS011;53568;52.164;4.472;2022-11-03T12:01:33;3.56;;;3.18;;
66669;SDS011;53568;52.164;4.472;2022-11-03T12:04:04;3.93;;;3.46;;
66669;SDS011;53568;52.164;4.472;2022-11-03T12:06:41;3.46;;;3.10;;
66669;SDS011;53568;52.164;4.472;2022-11-03T12:09:07;3.52;;;3.14;;
66669;SDS011;53568;52.164;4.472;2022-11-03T12:11:52;3.43;;;3.07;;
66669;SDS011;53568;52.164;4.472;2022-11-03T12:14:23;3.35;;;3.01;;
66669;SDS011;53568;52.164;4.472;2022-11-03T12:16:53;3.55;;;3.14;;
66669;SDS011;53568;52.164;4.472;2022-11-03T12:22:19;3.46;;;3.09;;
66669;SDS011;53568;52.164;4.472;2022-11-03T12:25:04;3.57;;;3.20;;
66669;SDS011;53568;52.164;4.472;2022-11-03T12:30:04;3.65;;;3.35;;
66669;SDS011;53568;52.164;4.472;2022-11-03T12:32:37;3.66;;;3.31;;
66669;SDS011;53568;52.164;4.472;2022-11-03T12:35:03;3.72;;;3.36;;
66669;SDS011;53568;52.164;4.472;2022-11-03T12:37:32;3.51;;;3.18;;
66669;SDS011;53568;52.164;4.472;2022-11-03T12:39:57;3.07;;;2.80;;
66669;SDS011;53568;52.164;4.472;2022-11-03T12:42:23;3.87;;;3.51;;
66669;SDS011;53568;52.164;4.472;2022-11-03T12:44:49;3.62;;;3.33;;
66669;SDS011;53568;52.164;4.472;2022-11-03T12:47:15;3.44;;;3.13;;
66669;SDS011;53568;52.164;4.472;2022-11-03T12:49:40;3.57;;;3.23;;
66669;SDS011;53568;52.164;4.472;2022-11-03T12:52:06;3.33;;;3.05;;
66669;SDS011;53568;52.164;4.472;2022-11-03T12:54:32;3.13;;;2.86;;
66669;SDS011;53568;52.164;4.472;2022-11-03T12:56:58;3.28;;;3.04;;
66669;SDS011;53568;52.164;4.472;2022-11-03T12:59:24;3.06;;;2.83;;
66669;SDS011;53568;52.164;4.472;2022-11-03T13:01:49;3.42;;;3.05;;
66669;SDS011;53568;52.164;4.472;2022-11-03T13:04:15;3.40;;;3.03;;
66669;SDS011;53568;52.164;4.472;2022-11-03T13:06:40;3.36;;;3.06;;
66669;SDS011;53568;52.164;4.472;2022-11-03T13:09:06;3.36;;;3.08;;
66669;SDS011;53568;52.164;4.472;2022-11-03T13:11:31;3.81;;;3.43;;
66669;SDS011;53568;52.164;4.472;2022-11-03T13:14:15;3.58;;;3.21;;
66669;SDS011;53568;52.164;4.472;2022-11-03T13:16:41;3.41;;;3.13;;
66669;SDS011;53568;52.164;4.472;2022-11-03T13:19:06;3.43;;;3.17;;
66669;SDS011;53568;52.164;4.472;2022-11-03T13:21:34;3.52;;;3.29;;
66669;SDS011;53568;52.164;4.472;2022-11-03T13:24:00;3.19;;;3.01;;
66669;SDS011;53568;52.164;4.472;2022-11-03T13:26:26;3.39;;;3.15;;
66669;SDS011;53568;52.164;4.472;2022-11-03T13:28:51;3.66;;;3.38;;
66669;SDS011;53568;52.164;4.472;2022-11-03T13:31:17;3.38;;;3.14;;
66669;SDS011;53568;52.164;4.472;2022-11-03T13:33:42;3.40;;;3.20;;
66669;SDS011;53568;52.164;4.472;2022-11-03T13:36:08;3.46;;;3.19;;
66669;SDS011;53568;52.164;4.472;2022-11-03T13:38:33;3.70;;;3.31;;
66669;SDS011;53568;52.164;4.472;2022-11-03T13:40:59;3.48;;;3.14;;
66669;SDS011;53568;52.164;4.472;2022-11-03T13:43:24;3.53;;;3.23;;
66669;SDS011;53568;52.164;4.472;2022-11-03T13:45:50;4.08;;;3.81;;
66669;SDS011;53568;52.164;4.472;2022-11-03T13:48:16;3.39;;;3.19;;
66669;SDS011;53568;52.164;4.472;2022-11-03T13:50:43;3.55;;;3.28;;
66669;SDS011;53568;52.164;4.472;2022-11-03T13:53:09;3.64;;;3.36;;
66669;SDS011;53568;52.164;4.472;2022-11-03T13:55:35;3.51;;;3.26;;
66669;SDS011;53568;52.164;4.472;2022-11-03T13:58:00;3.74;;;3.47;;
66669;SDS011;53568;52.164;4.472;2022-11-03T14:00:26;3.50;;;3.29;;
66669;SDS011;53568;52.164;4.472;2022-11-03T14:02:51;3.48;;;3.31;;
66669;SDS011;53568;52.164;4.472;2022-11-03T14:05:17;3.29;;;3.13;;
66669;SDS011;53568;52.164;4.472;2022-11-03T14:07:42;2.98;;;2.95;;
66669;SDS011;53568;52.164;4.472;2022-11-03T14:10:09;3.25;;;3.14;;
66669;SDS011;53568;52.164;4.472;2022-11-03T14:12:34;3.46;;;3.29;;
66669;SDS011;53568;52.164;4.472;2022-11-03T14:15:06;3.48;;;3.30;;
66669;SDS011;53568;52.164;4.472;2022-11-03T14:17:34;3.50;;;3.24;;
66669;SDS011;53568;52.164;4.472;2022-11-03T14:20:02;3.47;;;3.26;;
66669;SDS011;53568;52.164;4.472;2022-11-03T14:22:28;3.38;;;3.18;;
66669;SDS011;53568;52.164;4.472;2022-11-03T14:24:57;3.26;;;3.06;;
66669;SDS011;53568;52.164;4.472;2022-11-03T14:27:23;3.20;;;3.07;;
66669;SDS011;53568;52.164;4.472;2022-11-03T14:29:49;2.94;;;2.89;;
66669;SDS011;53568;52.164;4.472;2022-11-03T14:32:15;3.13;;;3.02;;
66669;SDS011;53568;52.164;4.472;2022-11-03T14:34:42;3.19;;;3.04;;
66669;SDS011;53568;52.164;4.472;2022-11-03T14:37:08;3.10;;;2.94;;
66669;SDS011;53568;52.164;4.472;2022-11-03T14:39:35;3.09;;;2.93;;
66669;SDS011;53568;52.164;4.472;2022-11-03T14:42:01;3.24;;;3.09;;
66669;SDS011;53568;52.164;4.472;2022-11-03T14:44:28;3.20;;;3.04;;
66669;SDS011;53568;52.164;4.472;2022-11-03T14:46:58;3.18;;;3.06;;
66669;SDS011;53568;52.164;4.472;2022-11-03T14:49:28;2.87;;;2.79;;
66669;SDS011;53568;52.164;4.472;2022-11-03T14:51:57;2.82;;;2.75;;
66669;SDS011;53568;52.164;4.472;2022-11-03T14:54:24;3.22;;;3.12;;
66669;SDS011;53568;52.164;4.472;2022-11-03T14:56:50;3.29;;;3.15;;
66669;SDS011;53568;52.164;4.472;2022-11-03T14:59:16;3.32;;;3.21;;
66669;SDS011;53568;52.164;4.472;2022-11-03T15:01:42;3.40;;;3.25;;
66669;SDS011;53568;52.164;4.472;2022-11-03T15:04:08;3.58;;;3.38;;
66669;SDS011;53568;52.164;4.472;2022-11-03T15:06:34;3.55;;;3.39;;
66669;SDS011;53568;52.164;4.472;2022-11-03T15:09:00;3.53;;;3.42;;
66669;SDS011;53568;52.164;4.472;2022-11-03T15:11:27;3.67;;;3.63;;
66669;SDS011;53568;52.164;4.472;2022-11-03T15:13:56;3.44;;;3.37;;
66669;SDS011;53568;52.164;4.472;2022-11-03T15:16:21;3.49;;;3.37;;
66669;SDS011;53568;52.164;4.472;2022-11-03T15:18:47;3.50;;;3.42;;
66669;SDS011;53568;52.164;4.472;2022-11-03T15:21:13;3.53;;;3.47;;
66669;SDS011;53568;52.164;4.472;2022-11-03T15:23:39;3.39;;;3.35;;
66669;SDS011;53568;52.164;4.472;2022-11-03T15:26:04;3.83;;;3.74;;
66669;SDS011;53568;52.164;4.472;2022-11-03T15:28:30;3.81;;;3.76;;
66669;SDS011;53568;52.164;4.472;2022-11-03T15:30:56;3.36;;;3.29;;
66669;SDS011;53568;52.164;4.472;2022-11-03T15:33:22;3.44;;;3.38;;
66669;SDS011;53568;52.164;4.472;2022-11-03T15:35:48;4.01;;;3.93;;
66669;SDS011;53568;52.164;4.472;2022-11-03T15:38:13;3.36;;;3.30;;
66669;SDS011;53568;52.164;4.472;2022-11-03T15:40:39;3.47;;;3.42;;
66669;SDS011;53568;52.164;4.472;2022-11-03T15:43:04;3.62;;;3.53;;
66669;SDS011;53568;52.164;4.472;2022-11-03T15:45:30;3.29;;;3.21;;
66669;SDS011;53568;52.164;4.472;2022-11-03T15:47:57;3.95;;;3.88;;
66669;SDS011;53568;52.164;4.472;2022-11-03T15:50:24;3.64;;;3.58;;
66669;SDS011;53568;52.164;4.472;2022-11-03T15:52:50;3.30;;;3.25;;
66669;SDS011;53568;52.164;4.472;2022-11-03T15:55:16;3.76;;;3.67;;
66669;SDS011;53568;52.164;4.472;2022-11-03T15:57:42;3.41;;;3.33;;
66669;SDS011;53568;52.164;4.472;2022-11-03T16:00:09;3.45;;;3.40;;
66669;SDS011;53568;52.164;4.472;2022-11-03T16:02:36;3.33;;;3.31;;
66669;SDS011;53568;52.164;4.472;2022-11-03T16:05:04;3.41;;;3.39;;
66669;SDS011;53568;52.164;4.472;2022-11-03T16:07:30;3.42;;;3.38;;
66669;SDS011;53568;52.164;4.472;2022-11-03T16:09:55;3.46;;;3.39;;
66669;SDS011;53568;52.164;4.472;2022-11-03T16:12:22;3.18;;;3.12;;
66669;SDS011;53568;52.164;4.472;2022-11-03T16:14:48;3.29;;;3.24;;
66669;SDS011;53568;52.164;4.472;2022-11-03T16:17:17;3.54;;;3.48;;
66669;SDS011;53568;52.164;4.472;2022-11-03T16:19:43;3.75;;;3.65;;
66669;SDS011;53568;52.164;4.472;2022-11-03T16:22:08;3.50;;;3.41;;
66669;SDS011;53568;52.164;4.472;2022-11-03T16:24:34;3.07;;;3.07;;
66669;SDS011;53568;52.164;4.472;2022-11-03T16:27:00;3.24;;;3.24;;
66669;SDS011;53568;52.164;4.472;2022-11-03T16:29:25;3.38;;;3.38;;